Aruba, Aruba

05:41 AM AST del 20 Dicembre 2014 (GMT -0400)
Oranjestad-Reina Beatrix International | Change Station
CLOSE
Current Station
Aeroporto
Location: Aruba,
Altitudine: 59 ft
Stazioni meteo nelle vicinanze

Alt. 59 ft 12.50 °N, 70.02 °W | Updated 2 hours ago

Partly Cloudy
Parzialmente nuvoloso
79 °F
Sembra 79 °F
N
12
Vento Variabile Vento da Est

Oggi
Massima -- | Minima -- °F
--% Possibilità di precip.
Ieri
Massima -- | Minima -- °F
Precip. -- in
6:55 AM 6:19 PM
Luna calante, 4% visible
Pressione 29.86 in
Visibilità 6.2 miglia
Nuvole Alcuni 1900 ft
Punto di rugiada 72 °F
Umidità 78%
Piovosità 0.00 in
Spessore del manto nevoso Non disponibile.
Raggi UV 0 fuori da 12
Polline Non disponibile.
Qualità dell'aria Non disponibile.
Flu Activity Non disponibile.
METAR TNCA 200700Z 08010KT 9999 FEW019 26/22 Q1011 A2985 NOSIG

More Conditions Fewer Conditions

Pressione 29.86 in
Visibilità 6.2 miglia
Nuvole Alcuni 1900 ft
Punto di rugiada 72 °F
Umidità 78%
Piovosità 0.00 in
Spessore del manto nevoso Non disponibile.
Raggi UV 0 fuori da 12
Polline Non disponibile.
Qualità dell'aria Non disponibile.
Flu Activity Non disponibile.
METAR TNCA 200700Z 08010KT 9999 FEW019 26/22 Q1011 A2985 NOSIG

More Conditions Fewer Conditions

10-Day Weather Forecast

Almanac

Astronomia

Dec. 20, 2014 Alba Tramonto
Ora attuale
Crepuscolo civile
Crepuscolo nautico
Crepuscolo astronomico
Luna
Estensione della luce visibile
Lunghezza del giorno
Tomorrow will be .
, % of the Moon is Illuminated

Gli estremi di oggi

Massime Regione Minime Regione

Community

WunderPhotos

Upload Photos

1,779,150 foto caricate!

WunderBlogs® & News

Nearby

Qualità dell'aria

  Qualità dell'aria Indice AQ Inquinante
Not available.

Profondità neve

Stazione Profondità Altitudine

Attività sismica

Città  Distanza Mag. Data & Ora
Minimo Magnitudo Mostrato è 2.5.

Temperature delle acque costiere

Località Temperatura

Stazioni meteo nelle vicinanze